Time;durP1;ratioP1;P1;durP2;ratioP2;P2;SDS_P1;SDS_P2;PMS_P1;PMS_P2;Temp;Humidity;BMP_temperature;BMP_pressure;BME280_temperature;BME280_humidity;BME280_pressure;Samples;Min_cycle;Max_cycle;Signal;HPM_P1;HPM_P2
2023/09/06 00:02:07;;;;;;;12.40;11.25;;;;;;;;;;5018368;28;20030;-76
2023/09/06 00:04:33;;;;;;;12.80;11.70;;;;;;;;;;5002240;28;20038;-76
2023/09/06 00:07:00;;;;;;;13.35;12.20;;;;;;;;;;4989592;28;20044;-76
2023/09/06 00:09:25;;;;;;;13.82;12.50;;;;;;;;;;5003887;28;20038;-75
2023/09/06 00:11:51;;;;;;;13.93;12.43;;;;;;;;;;4996843;28;20099;-75
2023/09/06 00:14:17;;;;;;;12.23;11.13;;;;;;;;;;5002662;28;20037;-75
2023/09/06 00:16:46;;;;;;;12.48;11.35;;;;;;;;;;5017552;28;20050;-75
2023/09/06 00:19:12;;;;;;;;;;;;;;;;;;4993994;28;20061;-77
2023/09/06 00:21:40;;;;;;;12.35;11.35;;;;;;;;;;5003961;28;20296;-75
2023/09/06 00:24:08;;;;;;;12.80;11.70;;;;;;;;;;5002708;28;20041;-75
2023/09/06 00:26:34;;;;;;;15.35;12.70;;;;;;;;;;4989202;28;20055;-75
2023/09/06 00:28:59;;;;;;;13.43;11.95;;;;;;;;;;5001563;28;20052;-75
2023/09/06 00:31:25;;;;;;;12.95;11.95;;;;;;;;;;5001778;28;20120;-75
2023/09/06 00:33:51;;;;;;;13.20;12.00;;;;;;;;;;5004277;28;20069;-75
2023/09/06 00:36:17;;;;;;;13.68;12.52;;;;;;;;;;5018367;28;20076;-75
2023/09/06 00:38:43;;;;;;;13.32;12.15;;;;;;;;;;5018800;28;20648;-75
2023/09/06 00:41:09;;;;;;;12.43;11.27;;;;;;;;;;5003751;28;20386;-75
2023/09/06 00:43:35;;;;;;;13.52;12.40;;;;;;;;;;5015608;28;20041;-75
2023/09/06 00:46:07;;;;;;;13.55;12.02;;;;;;;;;;4987843;28;20037;-76
2023/09/06 00:48:34;;;;;;;12.82;11.73;;;;;;;;;;5002776;28;20044;-76
2023/09/06 00:51:01;;;;;;;13.40;12.15;;;;;;;;;;5000953;28;20048;-75
2023/09/06 00:53:27;;;;;;;13.65;12.48;;;;;;;;;;5006299;28;20655;-76
2023/09/06 00:55:53;;;;;;;13.00;11.90;;;;;;;;;;5001614;28;20044;-76
2023/09/06 00:58:20;;;;;;;12.82;11.65;;;;;;;;;;5014625;28;20379;-75
2023/09/06 01:00:48;;;;;;;12.73;11.63;;;;;;;;;;4999629;28;20065;-75
2023/09/06 01:03:15;;;;;;;12.43;11.45;;;;;;;;;;5001044;28;20033;-75
2023/09/06 01:06:12;;;;;;;12.52;11.40;;;;;;;;;;5021652;28;20034;-76
2023/09/06 01:08:47;;;;;;;12.80;11.77;;;;;;;;;;5003704;28;20038;-76
2023/09/06 01:11:19;;;;;;;12.50;11.50;;;;;;;;;;4967459;28;20490;-75
2023/09/06 01:13:51;;;;;;;12.90;11.80;;;;;;;;;;5018367;28;20042;-75
2023/09/06 01:16:22;;;;;;;13.30;11.98;;;;;;;;;;5002384;28;20083;-75
2023/09/06 01:18:48;;;;;;;13.05;11.82;;;;;;;;;;5004713;28;20034;-75
2023/09/06 01:21:17;;;;;;;13.35;11.95;;;;;;;;;;5001821;28;20037;-76
2023/09/06 01:23:44;;;;;;;13.93;12.73;;;;;;;;;;5019172;28;20061;-75
2023/09/06 01:26:10;;;;;;;13.25;12.18;;;;;;;;;;5000097;28;20441;-76
2023/09/06 01:28:35;;;;;;;13.07;11.77;;;;;;;;;;5004935;28;20030;-76
2023/09/06 01:31:01;;;;;;;12.77;11.68;;;;;;;;;;4986511;28;20129;-76
2023/09/06 01:33:28;;;;;;;14.00;12.70;;;;;;;;;;5019232;28;20113;-76
2023/09/06 01:35:54;;;;;;;13.18;12.05;;;;;;;;;;5016281;28;20145;-76
2023/09/06 01:38:20;;;;;;;12.52;11.45;;;;;;;;;;5017380;28;20148;-76
2023/09/06 01:40:46;;;;;;;13.02;11.93;;;;;;;;;;5004088;28;20033;-76
2023/09/06 01:43:12;;;;;;;13.80;12.20;;;;;;;;;;5008434;28;20034;-76
2023/09/06 01:45:45;;;;;;;13.17;12.07;;;;;;;;;;5012355;28;20568;-76
2023/09/06 01:48:11;;;;;;;13.38;12.07;;;;;;;;;;5005978;28;20037;-76
2023/09/06 01:50:37;;;;;;;13.52;12.20;;;;;;;;;;5004390;28;20040;-76
2023/09/06 01:53:03;;;;;;;14.23;13.02;;;;;;;;;;5000229;28;20038;-76
2023/09/06 01:55:29;;;;;;;13.95;12.57;;;;;;;;;;4991819;28;20045;-76
2023/09/06 01:57:54;;;;;;;13.95;12.75;;;;;;;;;;5003165;28;20049;-76
2023/09/06 02:02:48;;;;;;;13.53;12.43;;;;;;;;;;4996584;28;20117;-76
2023/09/06 02:05:14;;;;;;;13.48;12.27;;;;;;;;;;5001827;28;20120;-75
2023/09/06 02:07:40;;;;;;;13.27;12.20;;;;;;;;;;4996066;28;20671;-76
2023/09/06 02:10:07;;;;;;;13.68;12.40;;;;;;;;;;5004903;28;20048;-76
2023/09/06 02:12:33;;;;;;;14.52;13.13;;;;;;;;;;5007466;28;20124;-76
2023/09/06 02:14:59;;;;;;;13.70;12.50;;;;;;;;;;5005132;28;20128;-76
2023/09/06 02:17:25;;;;;;;15.30;13.13;;;;;;;;;;5005005;28;20484;-76
2023/09/06 02:19:50;;;;;;;14.93;13.43;;;;;;;;;;5002426;28;20432;-76
2023/09/06 02:22:18;;;;;;;14.27;12.80;;;;;;;;;;4998648;28;20033;-76
2023/09/06 02:24:44;;;;;;;16.73;13.60;;;;;;;;;;5008539;28;20065;-76
2023/09/06 02:27:12;;;;;;;16.48;13.48;;;;;;;;;;5023109;28;20113;-76
2023/09/06 02:29:39;;;;;;;14.17;12.77;;;;;;;;;;5023251;28;20087;-76
2023/09/06 02:32:05;;;;;;;15.02;13.38;;;;;;;;;;5014361;28;20301;-76
2023/09/06 02:34:30;;;;;;;13.60;12.30;;;;;;;;;;5016520;28;20092;-76
2023/09/06 02:36:56;;;;;;;13.80;12.50;;;;;;;;;;4999285;28;20375;-76
2023/09/06 02:39:25;;;;;;;15.75;12.48;;;;;;;;;;5001067;28;20053;-76
2023/09/06 02:41:52;;;;;;;13.80;12.40;;;;;;;;;;5011809;28;20394;-76
2023/09/06 02:44:17;;;;;;;14.65;12.50;;;;;;;;;;5004647;28;20038;-76
2023/09/06 02:46:43;;;;;;;14.32;12.93;;;;;;;;;;5018020;28;20100;-76
2023/09/06 02:49:12;;;;;;;13.55;12.40;;;;;;;;;;5020202;28;20034;-76
2023/09/06 02:51:43;;;;;;;13.43;12.15;;;;;;;;;;5004419;28;20553;-75
2023/09/06 02:54:09;;;;;;;13.52;12.32;;;;;;;;;;4985357;28;20030;-76
2023/09/06 02:56:37;;;;;;;15.20;12.65;;;;;;;;;;5005001;28;20033;-76
2023/09/06 02:59:12;;;;;;;13.80;12.55;;;;;;;;;;5003331;28;20061;-75
2023/09/06 03:01:44;;;;;;;15.32;13.70;;;;;;;;;;5002617;28;20042;-75
2023/09/06 03:04:13;;;;;;;13.52;12.27;;;;;;;;;;5020614;28;20707;-75
2023/09/06 03:06:43;;;;;;;13.68;12.25;;;;;;;;;;5020309;28;20122;-75
2023/09/06 03:09:13;;;;;;;13.88;12.38;;;;;;;;;;5016669;28;20037;-76
2023/09/06 03:11:38;;;;;;;;;;;;;;;;;;5020462;28;20510;-76
2023/09/06 03:14:05;;;;;;;13.25;11.18;;;;;;;;;;5020206;28;19921;-75
2023/09/06 03:16:38;;;;;;;14.57;12.60;;;;;;;;;;5003734;28;20054;-75
2023/09/06 03:19:10;;;;;;;13.35;12.15;;;;;;;;;;5014526;28;20065;-75
2023/09/06 03:21:37;;;;;;;13.15;12.00;;;;;;;;;;5003404;28;20117;-75
2023/09/06 03:24:11;;;;;;;12.70;11.52;;;;;;;;;;5005114;28;20137;-75
2023/09/06 03:26:44;;;;;;;12.73;11.63;;;;;;;;;;4990184;28;20397;-75
2023/09/06 03:29:10;;;;;;;12.68;11.35;;;;;;;;;;4984623;28;20042;-75
2023/09/06 03:31:42;;;;;;;13.15;11.95;;;;;;;;;;4990081;28;20116;-77
2023/09/06 03:34:13;;;;;;;13.95;12.65;;;;;;;;;;5022041;28;20117;-75
2023/09/06 03:36:46;;;;;;;12.77;11.68;;;;;;;;;;4995408;28;20026;-75
2023/09/06 03:39:13;;;;;;;13.60;12.40;;;;;;;;;;5005604;28;20117;-75
2023/09/06 03:41:41;;;;;;;13.05;11.95;;;;;;;;;;5001673;28;20026;-75
2023/09/06 03:44:07;;;;;;;12.75;11.65;;;;;;;;;;5019185;28;20045;-75
2023/09/06 03:46:34;;;;;;;13.43;12.10;;;;;;;;;;4998119;28;20516;-76
2023/09/06 03:49:05;;;;;;;13.32;11.27;;;;;;;;;;4999055;28;20485;-76
2023/09/06 03:51:32;;;;;;;15.05;12.80;;;;;;;;;;5020448;28;20061;-76
2023/09/06 03:53:59;;;;;;;14.13;12.65;;;;;;;;;;5012229;28;20085;-76
2023/09/06 03:56:27;;;;;;;13.30;12.07;;;;;;;;;;5014775;28;20061;-76
2023/09/06 03:58:54;;;;;;;12.75;11.55;;;;;;;;;;5004122;28;20034;-76
2023/09/06 04:01:20;;;;;;;13.75;12.35;;;;;;;;;;5003837;28;20543;-75
2023/09/06 04:03:50;;;;;;;13.02;11.75;;;;;;;;;;5000066;28;20088;-75
2023/09/06 04:06:16;;;;;;;13.13;11.90;;;;;;;;;;5006801;28;20117;-77
2023/09/06 04:08:44;;;;;;;13.20;11.98;;;;;;;;;;5013129;28;20109;-75
2023/09/06 04:11:09;;;;;;;14.10;12.23;;;;;;;;;;5011359;28;20505;-75
2023/09/06 04:13:35;;;;;;;13.70;12.40;;;;;;;;;;4999262;28;20045;-76
2023/09/06 04:16:01;;;;;;;15.45;13.90;;;;;;;;;;5004572;28;20718;-76
2023/09/06 04:18:30;;;;;;;16.17;13.02;;;;;;;;;;5015831;28;20034;-76
2023/09/06 04:20:59;;;;;;;15.82;13.80;;;;;;;;;;4993212;28;20203;-76
2023/09/06 04:23:25;;;;;;;15.32;13.75;;;;;;;;;;5003866;28;20076;-76
2023/09/06 04:25:55;;;;;;;16.38;14.15;;;;;;;;;;5004813;28;20042;-76
2023/09/06 04:28:25;;;;;;;15.27;13.80;;;;;;;;;;4987481;28;20064;-76
2023/09/06 04:30:53;;;;;;;15.55;14.02;;;;;;;;;;5017230;28;20038;-75
2023/09/06 04:33:22;;;;;;;17.33;14.15;;;;;;;;;;5003851;28;20038;-76
2023/09/06 04:36:07;;;;;;;15.90;14.25;;;;;;;;;;5002899;28;20061;-76
2023/09/06 04:38:33;;;;;;;15.88;14.35;;;;;;;;;;5001351;28;20046;-76
2023/09/06 04:41:02;;;;;;;15.68;13.77;;;;;;;;;;5013646;28;20045;-76
2023/09/06 04:43:33;;;;;;;16.25;14.65;;;;;;;;;;5020055;28;20041;-76
2023/09/06 04:45:59;;;;;;;17.25;14.88;;;;;;;;;;5002552;28;20061;-76
2023/09/06 04:48:27;;;;;;;16.38;14.68;;;;;;;;;;5000735;28;20465;-75
2023/09/06 04:50:59;;;;;;;18.25;14.80;;;;;;;;;;5013888;28;20742;-75
2023/09/06 04:53:25;;;;;;;16.15;14.65;;;;;;;;;;4990659;28;20481;-75
2023/09/06 04:55:53;;;;;;;16.40;14.35;;;;;;;;;;4995390;28;20038;-75
2023/09/06 04:58:24;;;;;;;15.73;14.07;;;;;;;;;;5004288;28;20045;-75
2023/09/06 05:00:50;;;;;;;16.02;14.52;;;;;;;;;;5014055;28;20038;-75
2023/09/06 05:03:17;;;;;;;15.23;13.82;;;;;;;;;;5009299;28;20022;-75
2023/09/06 05:05:46;;;;;;;16.05;14.52;;;;;;;;;;5015591;28;20040;-75
2023/09/06 05:08:12;;;;;;;16.23;14.45;;;;;;;;;;5017412;28;20037;-75
2023/09/06 05:10:39;;;;;;;15.80;14.30;;;;;;;;;;5025178;28;20034;-75
2023/09/06 05:13:07;;;;;;;15.38;13.88;;;;;;;;;;5018875;28;20044;-75
2023/09/06 05:15:35;;;;;;;15.77;14.32;;;;;;;;;;5025780;28;20030;-75
2023/09/06 05:18:02;;;;;;;16.27;14.65;;;;;;;;;;5005102;28;20038;-74
2023/09/06 05:20:30;;;;;;;15.32;13.85;;;;;;;;;;5004182;28;20040;-75
2023/09/06 05:23:18;;;;;;;16.05;14.43;;;;;;;;;;5018505;28;20041;-74
2023/09/06 05:25:46;;;;;;;16.67;14.45;;;;;;;;;;4999222;28;20113;-75
2023/09/06 05:28:16;;;;;;;15.18;13.60;;;;;;;;;;5020429;28;20142;-75
2023/09/06 05:30:48;;;;;;;16.02;14.32;;;;;;;;;;5014702;28;20045;-74
2023/09/06 05:33:15;;;;;;;15.50;13.90;;;;;;;;;;5023179;28;20030;-75
2023/09/06 05:35:44;;;;;;;14.52;13.07;;;;;;;;;;5011231;28;20425;-75
2023/09/06 05:38:11;;;;;;;13.40;12.13;;;;;;;;;;5012156;28;20038;-74
2023/09/06 05:40:40;;;;;;;14.95;13.40;;;;;;;;;;4996248;28;20069;-75
2023/09/06 05:43:10;;;;;;;14.93;13.07;;;;;;;;;;4998459;28;20046;-75
2023/09/06 05:45:36;;;;;;;13.80;12.50;;;;;;;;;;5006951;28;20034;-75
2023/09/06 05:48:03;;;;;;;14.20;12.85;;;;;;;;;;4991712;28;20049;-75
2023/09/06 05:50:29;;;;;;;14.02;12.82;;;;;;;;;;5006847;28;20038;-74
2023/09/06 05:52:56;;;;;;;14.63;13.13;;;;;;;;;;5002091;28;20050;-74
2023/09/06 05:55:22;;;;;;;13.65;12.48;;;;;;;;;;5012952;28;20048;-74
2023/09/06 05:57:50;;;;;;;13.35;12.13;;;;;;;;;;5010308;28;20406;-74
2023/09/06 06:00:17;;;;;;;14.10;12.80;;;;;;;;;;5005603;28;20042;-74
2023/09/06 06:02:49;;;;;;;14.45;12.35;;;;;;;;;;5004161;28;20033;-74
2023/09/06 06:05:18;;;;;;;16.33;12.75;;;;;;;;;;5002563;28;20869;-74
2023/09/06 06:07:44;;;;;;;13.65;12.35;;;;;;;;;;4999533;28;20700;-74
2023/09/06 06:10:12;;;;;;;18.73;14.05;;;;;;;;;;5004556;28;20109;-74
2023/09/06 06:12:39;;;;;;;14.25;12.65;;;;;;;;;;4999837;28;20490;-74
2023/09/06 06:15:08;;;;;;;13.40;12.18;;;;;;;;;;4992183;28;20046;-74
2023/09/06 06:17:34;;;;;;;14.73;12.32;;;;;;;;;;4992411;28;20030;-74
2023/09/06 06:20:00;;;;;;;14.07;12.60;;;;;;;;;;5000704;28;20133;-74
2023/09/06 06:22:25;;;;;;;15.43;12.98;;;;;;;;;;4989659;28;20109;-74
2023/09/06 06:24:51;;;;;;;14.60;13.02;;;;;;;;;;4990549;28;20046;-74
2023/09/06 06:27:17;;;;;;;16.98;12.85;;;;;;;;;;5008671;28;20038;-74
2023/09/06 06:29:42;;;;;;;13.52;12.32;;;;;;;;;;4998861;28;20081;-74
2023/09/06 06:32:08;;;;;;;13.85;12.55;;;;;;;;;;4994835;28;20034;-74
2023/09/06 06:34:36;;;;;;;15.20;12.13;;;;;;;;;;4995123;28;20303;-74
2023/09/06 06:37:02;;;;;;;12.97;11.77;;;;;;;;;;4990309;28;20034;-75
2023/09/06 06:39:28;;;;;;;15.50;11.80;;;;;;;;;;4989055;28;20037;-74
2023/09/06 06:41:53;;;;;;;12.35;11.23;;;;;;;;;;4999944;28;20034;-75
2023/09/06 06:44:19;;;;;;;13.80;11.63;;;;;;;;;;4997407;28;20490;-75
2023/09/06 06:46:44;;;;;;;14.35;11.90;;;;;;;;;;4998021;28;20399;-75
2023/09/06 06:49:10;;;;;;;13.07;11.88;;;;;;;;;;4988074;28;20593;-75
2023/09/06 06:51:38;;;;;;;14.73;12.75;;;;;;;;;;4989890;28;20479;-75
2023/09/06 06:54:08;;;;;;;12.60;11.38;;;;;;;;;;4990785;28;20545;-75
2023/09/06 06:56:36;;;;;;;13.48;12.07;;;;;;;;;;5007592;28;20050;-75
2023/09/06 06:59:02;;;;;;;16.42;11.57;;;;;;;;;;4995913;28;20042;-75
2023/09/06 07:01:29;;;;;;;14.43;10.75;;;;;;;;;;4990273;28;20050;-75
2023/09/06 07:03:55;;;;;;;13.00;10.82;;;;;;;;;;4995343;28;20045;-75
2023/09/06 07:06:23;;;;;;;13.85;10.63;;;;;;;;;;4994485;28;20117;-75
2023/09/06 07:08:49;;;;;;;15.40;10.80;;;;;;;;;;5003904;28;20517;-75
2023/09/06 07:11:16;;;;;;;16.00;10.95;;;;;;;;;;5002049;28;20072;-74
2023/09/06 07:13:42;;;;;;;14.73;10.48;;;;;;;;;;5001047;28;20037;-76
2023/09/06 07:16:09;;;;;;;11.90;10.85;;;;;;;;;;4992437;28;20037;-76
2023/09/06 07:18:35;;;;;;;12.10;11.10;;;;;;;;;;5001837;28;20054;-76
2023/09/06 07:21:00;;;;;;;14.13;10.52;;;;;;;;;;4991428;28;20038;-76
2023/09/06 07:23:27;;;;;;;12.35;10.57;;;;;;;;;;4991855;28;20448;-76
2023/09/06 07:25:52;;;;;;;13.50;11.07;;;;;;;;;;4989149;28;20037;-76
2023/09/06 07:28:22;;;;;;;12.43;10.70;;;;;;;;;;4991032;28;20026;-76
2023/09/06 07:30:48;;;;;;;13.43;10.38;;;;;;;;;;4990558;28;20097;-76
2023/09/06 07:33:14;;;;;;;12.65;10.38;;;;;;;;;;4994020;28;20030;-76
2023/09/06 07:35:42;;;;;;;11.95;10.95;;;;;;;;;;4992162;28;20524;-76
2023/09/06 07:38:08;;;;;;;11.68;10.68;;;;;;;;;;4991173;28;20097;-76
2023/09/06 07:40:34;;;;;;;11.80;10.55;;;;;;;;;;5010843;28;20046;-76
2023/09/06 07:43:00;;;;;;;11.75;10.55;;;;;;;;;;4988943;28;20049;-76
2023/09/06 07:45:25;;;;;;;11.10;9.95;;;;;;;;;;4995150;28;20110;-76
2023/09/06 07:47:51;;;;;;;11.40;9.25;;;;;;;;;;4990846;28;20444;-76
2023/09/06 07:50:17;;;;;;;10.35;9.30;;;;;;;;;;4991234;28;20042;-76
2023/09/06 07:52:43;;;;;;;10.23;9.32;;;;;;;;;;4992634;28;20475;-76
2023/09/06 07:55:09;;;;;;;9.88;9.02;;;;;;;;;;4991332;28;20056;-76
2023/09/06 07:57:34;;;;;;;10.48;9.57;;;;;;;;;;4994456;28;20053;-76
2023/09/06 08:00:00;;;;;;;9.93;9.02;;;;;;;;;;4992509;28;20067;-76
2023/09/06 08:02:26;;;;;;;10.50;9.30;;;;;;;;;;4993838;28;20030;-76
2023/09/06 08:04:51;;;;;;;10.52;9.13;;;;;;;;;;4990972;28;20033;-76
2023/09/06 08:07:17;;;;;;;9.88;9.13;;;;;;;;;;5010536;28;20077;-76
2023/09/06 08:09:43;;;;;;;11.85;9.75;;;;;;;;;;4991968;28;20034;-76
2023/09/06 08:12:08;;;;;;;10.30;9.30;;;;;;;;;;4987956;28;20421;-76
2023/09/06 08:14:35;;;;;;;10.20;9.30;;;;;;;;;;4999731;28;20117;-77
2023/09/06 08:17:01;;;;;;;10.00;9.20;;;;;;;;;;4991157;28;20405;-76
2023/09/06 08:19:27;;;;;;;10.45;9.43;;;;;;;;;;4993956;28;20026;-76
2023/09/06 08:21:52;;;;;;;10.43;9.02;;;;;;;;;;4992726;28;20034;-76
2023/09/06 08:24:18;;;;;;;10.43;9.52;;;;;;;;;;4997987;28;20449;-76
2023/09/06 08:26:48;;;;;;;10.38;9.48;;;;;;;;;;4989400;28;20038;-76
2023/09/06 08:29:13;;;;;;;9.57;8.77;;;;;;;;;;4990125;28;20050;-76
2023/09/06 08:31:39;;;;;;;9.70;8.77;;;;;;;;;;4997861;28;20126;-76
2023/09/06 08:34:05;;;;;;;10.80;9.65;;;;;;;;;;4996723;28;20038;-76
2023/09/06 08:36:30;;;;;;;9.60;8.70;;;;;;;;;;4991726;28;20027;-76
2023/09/06 08:38:56;;;;;;;9.55;8.65;;;;;;;;;;4995152;28;20117;-76
2023/09/06 08:41:22;;;;;;;10.20;8.70;;;;;;;;;;4996092;28;20042;-78
2023/09/06 08:43:50;;;;;;;8.73;8.02;;;;;;;;;;4988955;28;20067;-77
2023/09/06 08:46:27;;;;;;;8.60;7.80;;;;;;;;;;4992459;28;20073;-77
2023/09/06 08:48:53;;;;;;;8.68;7.57;;;;;;;;;;4989843;28;20486;-77
2023/09/06 08:51:20;;;;;;;8.88;7.97;;;;;;;;;;4988796;28;20042;-77
2023/09/06 08:53:47;;;;;;;9.13;8.32;;;;;;;;;;4994545;28;20066;-77
2023/09/06 08:56:16;;;;;;;10.30;8.32;;;;;;;;;;4995322;28;20034;-77
2023/09/06 08:58:42;;;;;;;9.07;8.15;;;;;;;;;;4987726;28;20030;-77
2023/09/06 09:01:08;;;;;;;9.55;8.65;;;;;;;;;;5003370;28;20034;-77
2023/09/06 09:03:34;;;;;;;9.25;8.45;;;;;;;;;;4997668;28;20501;-77
2023/09/06 09:06:06;;;;;;;8.77;8.07;;;;;;;;;;4994240;28;20060;-77
2023/09/06 09:08:32;;;;;;;9.90;8.93;;;;;;;;;;4993427;28;20038;-77
2023/09/06 09:11:14;;;;;;;9.05;8.35;;;;;;;;;;4995854;28;20112;-77
2023/09/06 09:13:43;;;;;;;8.70;7.90;;;;;;;;;;4992521;28;20038;-77
2023/09/06 09:16:10;;;;;;;8.95;7.80;;;;;;;;;;4989765;28;20056;-77
2023/09/06 09:18:38;;;;;;;8.45;7.65;;;;;;;;;;4990780;28;20038;-77
2023/09/06 09:21:04;;;;;;;10.82;8.63;;;;;;;;;;5001015;28;20045;-77
2023/09/06 09:23:31;;;;;;;12.32;8.70;;;;;;;;;;4991027;28;20490;-77
2023/09/06 09:25:56;;;;;;;10.77;8.75;;;;;;;;;;4994603;28;20511;-77
2023/09/06 09:28:23;;;;;;;9.60;8.80;;;;;;;;;;4992251;28;20046;-77
2023/09/06 09:30:50;;;;;;;9.82;8.88;;;;;;;;;;4988345;28;20060;-77
2023/09/06 09:33:16;;;;;;;9.07;8.43;;;;;;;;;;4992460;28;20034;-77
2023/09/06 09:35:43;;;;;;;9.23;8.32;;;;;;;;;;4991806;28;20076;-77
2023/09/06 09:38:12;;;;;;;9.57;8.70;;;;;;;;;;4993912;28;20529;-76
2023/09/06 09:40:38;;;;;;;9.93;9.02;;;;;;;;;;4989816;28;20034;-76
2023/09/06 09:43:04;;;;;;;9.05;8.25;;;;;;;;;;4988818;28;20061;-77
2023/09/06 09:45:43;;;;;;;9.40;8.45;;;;;;;;;;4991425;28;20033;-75
2023/09/06 09:48:09;;;;;;;;;;;;;;;;;;4988527;28;20513;-75
2023/09/06 09:50:35;;;;;;;9.50;8.70;;;;;;;;;;4989016;28;19957;-75
2023/09/06 09:53:07;;;;;;;9.27;8.48;;;;;;;;;;4990652;28;20037;-75
2023/09/06 09:55:39;;;;;;;9.02;8.13;;;;;;;;;;5001640;28;20030;-75
2023/09/06 09:58:09;;;;;;;9.43;8.50;;;;;;;;;;4990746;28;20038;-74
2023/09/06 10:00:39;;;;;;;9.30;8.50;;;;;;;;;;4994869;28;20072;-75
2023/09/06 10:03:05;;;;;;;9.82;8.95;;;;;;;;;;4989986;28;20384;-75
2023/09/06 10:05:31;;;;;;;9.70;8.80;;;;;;;;;;4991553;28;20080;-75
2023/09/06 10:08:00;;;;;;;9.25;8.45;;;;;;;;;;4997947;28;20441;-75
2023/09/06 10:10:27;;;;;;;9.32;8.43;;;;;;;;;;4997969;28;20033;-75
2023/09/06 10:12:55;;;;;;;8.82;8.13;;;;;;;;;;4992712;28;20597;-75
2023/09/06 10:15:23;;;;;;;8.80;8.10;;;;;;;;;;4991380;28;20469;-78
2023/09/06 10:17:51;;;;;;;9.30;8.35;;;;;;;;;;4998837;28;20049;-75
2023/09/06 10:20:22;;;;;;;9.93;8.93;;;;;;;;;;4996606;28;20693;-74
2023/09/06 10:22:53;;;;;;;9.75;8.90;;;;;;;;;;4999216;28;20113;-75
2023/09/06 10:25:19;;;;;;;9.27;8.48;;;;;;;;;;4987572;28;20038;-75
2023/09/06 10:27:53;;;;;;;8.90;8.20;;;;;;;;;;4998860;28;20038;-76
2023/09/06 10:30:43;;;;;;;9.00;8.10;;;;;;;;;;4990931;28;20033;-76
2023/09/06 10:33:31;;;;;;;9.02;8.27;;;;;;;;;;4996391;28;20049;-75
2023/09/06 10:35:58;;;;;;;8.45;7.65;;;;;;;;;;4993503;28;20232;-76
2023/09/06 10:38:23;;;;;;;8.95;8.25;;;;;;;;;;4987446;28;20065;-75
2023/09/06 10:40:49;;;;;;;8.45;7.75;;;;;;;;;;4990823;28;20057;-75
2023/09/06 10:43:54;;;;;;;8.77;8.00;;;;;;;;;;4996779;28;20573;-76
2023/09/06 10:46:24;;;;;;;8.45;7.85;;;;;;;;;;4982710;28;20052;-75
2023/09/06 10:49:16;;;;;;;8.77;8.07;;;;;;;;;;4999405;28;20044;-75
2023/09/06 10:52:14;;;;;;;9.40;8.50;;;;;;;;;;4997335;28;20038;-76
2023/09/06 10:54:42;;;;;;;11.95;8.15;;;;;;;;;;4956103;28;20340;-76
2023/09/06 10:57:10;;;;;;;14.57;9.15;;;;;;;;;;4962783;28;20054;-75
2023/09/06 10:59:37;;;;;;;9.35;8.48;;;;;;;;;;4958728;28;20104;-76
2023/09/06 11:02:07;;;;;;;11.07;8.77;;;;;;;;;;4960399;28;20043;-76
2023/09/06 11:04:32;;;;;;;9.60;8.45;;;;;;;;;;4949423;28;20059;-76
2023/09/06 11:06:58;;;;;;;8.40;7.75;;;;;;;;;;4953909;28;20051;-75
2023/09/06 11:09:25;;;;;;;8.32;7.43;;;;;;;;;;4959557;28;20073;-76
2023/09/06 11:11:52;;;;;;;9.38;8.57;;;;;;;;;;4962081;28;20227;-76
2023/09/06 11:14:17;;;;;;;9.10;8.40;;;;;;;;;;4957029;28;20070;-76
2023/09/06 11:16:46;;;;;;;9.43;8.63;;;;;;;;;;4965600;28;20070;-76
2023/09/06 11:19:12;;;;;;;8.85;8.15;;;;;;;;;;4958166;28;20494;-76
2023/09/06 11:21:38;;;;;;;8.40;7.78;;;;;;;;;;4958123;28;20042;-75
2023/09/06 11:24:04;;;;;;;9.15;8.15;;;;;;;;;;4962366;28;20046;-76
2023/09/06 11:26:37;;;;;;;8.38;7.78;;;;;;;;;;4962013;28;20124;-76
2023/09/06 11:29:05;;;;;;;8.93;8.27;;;;;;;;;;4946715;28;20125;-76
2023/09/06 11:31:33;;;;;;;9.43;8.73;;;;;;;;;;4998085;28;20041;-76
2023/09/06 11:34:04;;;;;;;8.70;8.00;;;;;;;;;;4998540;28;20050;-76
2023/09/06 11:36:32;;;;;;;9.25;8.57;;;;;;;;;;4997932;28;20506;-76
2023/09/06 11:39:01;;;;;;;10.70;7.97;;;;;;;;;;4998972;28;20108;-75
2023/09/06 11:41:28;;;;;;;8.65;7.97;;;;;;;;;;4995244;28;20054;-74
2023/09/06 11:43:58;;;;;;;9.60;8.27;;;;;;;;;;5000361;28;20430;-74
2023/09/06 11:46:24;;;;;;;9.10;8.45;;;;;;;;;;4994527;28;20038;-77
2023/09/06 11:48:53;;;;;;;9.60;8.65;;;;;;;;;;5001449;28;20045;-75
2023/09/06 11:51:21;;;;;;;9.68;8.88;;;;;;;;;;5002713;28;20037;-75
2023/09/06 11:53:54;;;;;;;9.55;8.85;;;;;;;;;;4991267;28;20038;-75
2023/09/06 11:56:30;;;;;;;9.48;8.68;;;;;;;;;;4992818;28;20064;-77
2023/09/06 11:58:59;;;;;;;9.60;8.80;;;;;;;;;;4997208;28;20049;-75
2023/09/06 12:01:26;;;;;;;9.88;9.15;;;;;;;;;;4997274;28;20042;-75
2023/09/06 12:04:01;;;;;;;10.00;9.10;;;;;;;;;;5002017;28;20458;-75
2023/09/06 12:06:27;;;;;;;9.55;8.85;;;;;;;;;;5000946;28;20042;-75
2023/09/06 12:08:53;;;;;;;10.10;9.30;;;;;;;;;;4998180;28;20038;-75
2023/09/06 12:11:24;;;;;;;9.95;9.07;;;;;;;;;;4996583;28;20092;-75
2023/09/06 12:13:51;;;;;;;10.05;9.25;;;;;;;;;;5000623;28;20042;-75
2023/09/06 12:16:16;;;;;;;9.73;8.93;;;;;;;;;;4999626;28;20044;-77
2023/09/06 12:18:42;;;;;;;9.80;9.00;;;;;;;;;;4996040;28;20034;-75
2023/09/06 12:21:08;;;;;;;10.38;9.68;;;;;;;;;;4997966;28;20034;-77
2023/09/06 12:23:35;;;;;;;9.82;9.10;;;;;;;;;;4986312;28;20050;-75
2023/09/06 12:26:02;;;;;;;10.27;9.48;;;;;;;;;;4998591;28;20045;-75
2023/09/06 12:28:28;;;;;;;10.77;9.93;;;;;;;;;;4995933;28;20357;-75
2023/09/06 12:31:02;;;;;;;10.13;9.32;;;;;;;;;;4999440;28;20040;-75
2023/09/06 12:33:28;;;;;;;10.13;9.38;;;;;;;;;;4997313;28;20049;-75
2023/09/06 12:36:05;;;;;;;9.85;9.13;;;;;;;;;;5001704;28;20717;-75
2023/09/06 12:38:31;;;;;;;10.35;9.45;;;;;;;;;;5004857;28;20030;-75
2023/09/06 12:40:58;;;;;;;9.90;9.07;;;;;;;;;;4997205;28;20038;-75
2023/09/06 12:43:24;;;;;;;9.73;8.93;;;;;;;;;;4993592;28;20521;-75
2023/09/06 12:45:51;;;;;;;9.93;9.23;;;;;;;;;;4994353;28;20044;-76
2023/09/06 12:48:17;;;;;;;10.02;9.32;;;;;;;;;;4993942;28;20030;-76
2023/09/06 12:50:43;;;;;;;10.85;9.98;;;;;;;;;;4999467;28;20038;-75
2023/09/06 12:53:08;;;;;;;10.93;9.98;;;;;;;;;;4995274;28;20038;-74
2023/09/06 12:55:35;;;;;;;10.20;9.50;;;;;;;;;;4993909;28;20041;-74
2023/09/06 12:58:03;;;;;;;10.02;9.32;;;;;;;;;;4993840;28;20037;-76
2023/09/06 13:00:29;;;;;;;10.90;9.82;;;;;;;;;;4990420;28;20090;-74
2023/09/06 13:02:55;;;;;;;11.18;10.20;;;;;;;;;;4991208;28;20144;-74
2023/09/06 13:05:21;;;;;;;10.38;9.57;;;;;;;;;;4995781;28;20033;-74
2023/09/06 13:07:46;;;;;;;10.68;9.65;;;;;;;;;;4994186;28;20537;-75
2023/09/06 13:10:12;;;;;;;10.70;9.85;;;;;;;;;;5001002;28;20152;-75
2023/09/06 13:12:38;;;;;;;10.30;9.40;;;;;;;;;;4994383;28;20041;-75
2023/09/06 13:15:05;;;;;;;10.52;9.82;;;;;;;;;;4997468;28;20037;-75
2023/09/06 13:17:31;;;;;;;10.10;9.32;;;;;;;;;;4992896;28;20037;-74
2023/09/06 13:19:56;;;;;;;9.80;9.10;;;;;;;;;;4993558;28;20046;-76
2023/09/06 13:22:22;;;;;;;10.48;9.77;;;;;;;;;;4998486;28;20635;-76
2023/09/06 13:24:48;;;;;;;10.32;9.50;;;;;;;;;;4990375;28;20041;-76
2023/09/06 13:27:14;;;;;;;10.82;9.90;;;;;;;;;;5002267;28;20042;-76
2023/09/06 13:29:40;;;;;;;10.30;9.55;;;;;;;;;;4990015;28;20161;-75
2023/09/06 13:32:09;;;;;;;10.80;10.00;;;;;;;;;;4994088;28;20121;-75
2023/09/06 13:34:36;;;;;;;10.70;9.70;;;;;;;;;;4991264;28;20113;-75
2023/09/06 13:37:02;;;;;;;10.82;10.02;;;;;;;;;;5000889;28;20061;-75
2023/09/06 13:39:28;;;;;;;10.27;9.48;;;;;;;;;;4997131;28;20112;-76
2023/09/06 13:41:53;;;;;;;10.70;9.80;;;;;;;;;;4998311;28;20450;-76
2023/09/06 13:44:19;;;;;;;11.15;10.15;;;;;;;;;;4994844;28;20042;-76
2023/09/06 13:46:47;;;;;;;10.88;10.00;;;;;;;;;;4995769;28;20095;-75
2023/09/06 13:49:13;;;;;;;10.43;9.65;;;;;;;;;;4986997;28;20125;-75
2023/09/06 13:51:39;;;;;;;10.90;10.10;;;;;;;;;;4999003;28;20120;-76
2023/09/06 13:54:05;;;;;;;10.40;9.60;;;;;;;;;;4993767;28;20414;-75
2023/09/06 13:56:32;;;;;;;10.77;9.75;;;;;;;;;;4991510;28;20033;-75
2023/09/06 13:58:58;;;;;;;10.93;10.13;;;;;;;;;;5000758;28;20038;-76
2023/09/06 14:01:25;;;;;;;11.05;10.13;;;;;;;;;;4993349;28;20492;-76
2023/09/06 14:03:50;;;;;;;10.88;9.93;;;;;;;;;;4998921;28;20533;-75
2023/09/06 14:06:16;;;;;;;10.65;9.85;;;;;;;;;;4993174;28;20149;-75
2023/09/06 14:08:43;;;;;;;10.50;9.60;;;;;;;;;;4998974;28;20741;-75
2023/09/06 14:11:08;;;;;;;10.65;9.82;;;;;;;;;;4986175;28;20045;-75
2023/09/06 14:13:34;;;;;;;10.20;9.50;;;;;;;;;;4992290;28;20034;-75
2023/09/06 14:16:03;;;;;;;11.00;10.20;;;;;;;;;;4991567;28;20042;-76
2023/09/06 14:18:29;;;;;;;10.65;9.88;;;;;;;;;;4995104;28;20593;-76
2023/09/06 14:20:55;;;;;;;10.75;9.88;;;;;;;;;;5004283;28;20456;-75
2023/09/06 14:23:21;;;;;;;14.18;10.10;;;;;;;;;;4988964;28;20035;-75
2023/09/06 14:25:47;;;;;;;11.45;10.40;;;;;;;;;;4991262;28;20057;-74
2023/09/06 14:28:13;;;;;;;11.00;9.98;;;;;;;;;;4995743;28;20061;-75
2023/09/06 14:30:43;;;;;;;10.65;9.85;;;;;;;;;;4996389;28;20143;-75
2023/09/06 14:33:09;;;;;;;10.10;9.40;;;;;;;;;;4993630;28;20041;-75